Time;durP1;ratioP1;P1;durP2;ratioP2;P2;SDS_P1;SDS_P2;PMS_P1;PMS_P2;Temp;Humidity;BMP_temperature;BMP_pressure;BME280_temperature;BME280_humidity;BME280_pressure;Samples;Min_cycle;Max_cycle;Signal;HPM_P1;HPM_P2
2022/01/12 00:00:25;;;;;;;0.20;0.20;;;;;;;18.89;39.43;103175.38;5141986;27;20046;-42
2022/01/12 00:02:51;;;;;;;0.20;0.20;;;;;;;18.87;39.27;103174.75;5140551;27;20070;-42
2022/01/12 00:05:18;;;;;;;0.20;0.20;;;;;;;18.88;39.23;103165.41;5123926;27;20035;-41
2022/01/12 00:07:47;;;;;;;0.20;0.20;;;;;;;18.88;39.13;103164.56;5126693;27;20046;-41
2022/01/12 00:10:13;;;;;;;0.20;0.20;;;;;;;18.88;39.39;103164.56;5141643;27;20051;-41
2022/01/12 00:12:39;;;;;;;0.20;0.20;;;;;;;18.86;39.14;103162.00;5107843;27;20112;-41
2022/01/12 00:15:05;;;;;;;0.20;0.20;;;;;;;18.87;39.21;103169.25;5140586;27;20405;-41
2022/01/12 00:17:31;;;;;;;0.20;0.20;;;;;;;18.86;39.30;103166.69;5141755;27;20050;-40
2022/01/12 00:19:56;;;;;;;0.20;0.20;;;;;;;18.87;39.38;103157.31;5122448;27;20601;-41
2022/01/12 00:22:22;;;;;;;0.20;0.20;;;;;;;18.87;39.49;103158.19;5123802;27;20048;-41
2022/01/12 00:25:10;;;;;;;0.20;0.20;;;;;;;18.86;39.31;103155.63;5117485;27;20043;-41
2022/01/12 00:33:10;;;;;;;0.20;0.20;;;;;;;18.86;39.27;103169.44;5105877;27;20663;-41
2022/01/12 00:35:38;;;;;;;0.20;0.20;;;;;;;18.86;39.21;103158.41;5102905;27;20059;-38
2022/01/12 00:38:04;;;;;;;0.20;0.20;;;;;;;18.85;39.34;103157.56;5121868;27;20052;-41
2022/01/12 00:40:30;;;;;;;0.20;0.20;;;;;;;18.85;39.29;103163.06;5117874;27;20051;-42
2022/01/12 00:42:55;;;;;;;0.20;0.20;;;;;;;18.85;39.16;103171.34;5104217;27;20530;-40
2022/01/12 00:45:22;;;;;;;0.25;0.25;;;;;;;18.86;39.28;103180.47;5125420;27;20194;-41
2022/01/12 00:47:48;;;;;;;0.20;0.20;;;;;;;18.85;39.32;103193.44;5102372;27;20057;-39
2022/01/12 00:50:13;;;;;;;0.20;0.20;;;;;;;18.84;39.16;103210.25;5120803;27;20660;-40
2022/01/12 00:52:39;;;;;;;0.20;0.20;;;;;;;18.85;39.21;103204.50;5122612;27;20051;-40
2022/01/12 00:55:06;;;;;;;0.20;0.20;;;;;;;18.85;39.32;103206.41;5124591;27;20424;-40
2022/01/12 00:57:32;;;;;;;0.20;0.20;;;;;;;18.85;39.33;103189.84;5123962;27;20046;-40
2022/01/12 00:59:58;;;;;;;0.20;0.20;;;;;;;18.85;39.32;103179.66;5111617;28;20127;-40
2022/01/12 01:02:23;;;;;;;0.20;0.20;;;;;;;18.84;39.31;103177.13;5090978;28;20383;-43
2022/01/12 01:04:49;;;;;;;0.20;0.20;;;;;;;18.83;39.12;103181.78;5094817;28;20186;-40
2022/01/12 01:07:17;;;;;;;0.20;0.20;;;;;;;18.84;39.29;103175.19;5093229;28;20134;-40
2022/01/12 01:09:49;;;;;;;0.20;0.20;;;;;;;18.83;39.25;103178.19;5106991;28;20047;-41
2022/01/12 01:12:15;;;;;;;0.20;0.20;;;;;;;18.82;39.24;103190.28;5089878;28;20179;-40
2022/01/12 01:14:49;;;;;;;0.20;0.20;;;;;;;18.83;39.43;103203.88;5106226;28;20455;-40
2022/01/12 01:25:28;;;;;;;0.20;0.20;;;;;;;18.84;39.38;103218.53;5107031;28;20059;-40
2022/01/12 01:25:32;;;;;;;0.30;0.30;;;;;;;18.83;39.15;103238.94;5089540;28;20086;-42
2022/01/12 01:27:59;;;;;;;0.20;0.20;;;;;;;18.83;39.30;103239.78;5108837;28;20057;-40
2022/01/12 01:30:25;;;;;;;0.20;0.20;;;;;;;18.82;39.26;103235.28;5087570;28;20106;-41
2022/01/12 01:32:51;;;;;;;0.20;0.20;;;;;;;18.83;39.32;103238.94;5086597;28;20460;-42
2022/01/12 01:35:18;;;;;;;0.30;0.30;;;;;;;18.82;39.59;103235.28;5100373;28;20143;-41
2022/01/12 01:37:44;;;;;;;0.20;0.20;;;;;;;18.82;39.28;103249.09;5101896;28;20076;-41
2022/01/12 01:40:11;;;;;;;0.20;0.20;;;;;;;18.83;39.30;103250.81;5108857;28;20044;-41
2022/01/12 01:42:56;;;;;;;0.20;0.20;;;;;;;18.82;39.23;103253.78;5089376;28;20047;-41
2022/01/12 01:53:39;;;;;;;0.20;0.20;;;;;;;18.81;39.27;103275.03;5089283;28;20075;-41
2022/01/12 01:56:06;;;;;;;0.20;0.20;;;;;;;18.82;39.31;103268.44;5109437;28;20059;-42
2022/01/12 01:58:32;;;;;;;0.30;0.30;;;;;;;18.80;39.27;103273.34;5091162;28;20049;-40
2022/01/12 02:00:58;;;;;;;0.20;0.20;;;;;;;18.80;39.35;103276.94;5106385;28;20427;-42
2022/01/12 02:03:29;;;;;;;0.20;0.20;;;;;;;18.80;39.21;103287.13;5107871;28;20085;-40
2022/01/12 02:05:55;;;;;;;0.20;0.20;;;;;;;18.79;39.32;103280.78;5113123;28;20548;-40
2022/01/12 02:08:21;;;;;;;0.20;0.20;;;;;;;18.78;39.34;103286.50;5107910;28;20114;-42
2022/01/12 02:10:53;;;;;;;0.20;0.20;;;;;;;18.78;39.33;103284.63;5077569;28;20424;-39
2022/01/12 02:13:18;;;;;;;0.20;0.20;;;;;;;18.78;39.12;103281.84;5094768;28;20043;-42
2022/01/12 02:15:46;;;;;;;0.20;0.20;;;;;;;18.79;39.28;103266.97;5103387;28;20036;-43
2022/01/12 02:40:42;;;;;;;0.20;0.20;;;;;;;18.77;39.30;103224.91;5157008;27;20089;-31
2022/01/12 02:43:26;;;;;;;0.30;0.30;;;;;;;18.77;39.41;103229.59;5142677;27;21215;-31
2022/01/12 02:54:04;;;;;;;0.20;0.20;;;;;;;18.76;39.23;103263.81;5154283;27;20445;-31
2022/01/12 02:56:33;;;;;;;0.20;0.20;;;;;;;18.76;39.37;103261.03;5136682;27;20261;-31
2022/01/12 02:58:59;;;;;;;0.20;0.20;;;;;;;18.77;39.30;103254.44;5153806;27;20050;-31
2022/01/12 03:01:52;;;;;;;0.20;0.20;;;;;;;18.75;39.34;103251.91;5137807;27;20084;-31
2022/01/12 03:04:12;;;;;;;0.20;0.20;;;;;;;18.77;39.33;103248.94;5123639;27;20047;-31
2022/01/12 03:06:40;;;;;;;0.20;0.20;;;;;;;18.76;39.40;103237.03;5156842;27;20042;-31
2022/01/12 03:09:07;;;;;;;0.20;0.20;;;;;;;18.75;39.22;103229.84;5135520;27;20183;-32
2022/01/12 03:11:35;;;;;;;0.20;0.20;;;;;;;18.75;39.35;103229.84;5121559;27;20502;-32
2022/01/12 03:14:01;;;;;;;0.20;0.20;;;;;;;18.76;39.22;103230.69;5139103;27;20038;-32
2022/01/12 03:16:28;;;;;;;0.20;0.20;;;;;;;18.75;39.44;103226.22;5153271;27;20046;-32
2022/01/12 03:18:56;;;;;;;0.20;0.20;;;;;;;18.75;39.34;103224.31;5158578;27;20038;-32
2022/01/12 03:21:25;;;;;;;0.20;0.20;;;;;;;18.75;39.26;103226.22;5158546;27;20495;-32
2022/01/12 03:23:51;;;;;;;0.20;0.20;;;;;;;18.74;39.35;103232.81;5136315;27;20042;-32
2022/01/12 03:26:17;;;;;;;0.20;0.20;;;;;;;18.74;39.40;103219.88;5155194;27;20437;-32
2022/01/12 03:28:43;;;;;;;0.20;0.20;;;;;;;18.74;39.50;103219.88;5132724;27;20039;-32
2022/01/12 03:31:18;;;;;;;0.20;0.20;;;;;;;18.75;39.28;103229.84;5156361;27;20677;-32
2022/01/12 03:39:12;;;;;;;0.30;0.30;;;;;;;18.73;39.35;103243.00;5140997;27;20397;-32
2022/01/12 03:41:42;;;;;;;0.20;0.20;;;;;;;18.74;39.27;103238.34;5155795;27;20030;-32
2022/01/12 03:44:09;;;;;;;0.30;0.30;;;;;;;18.73;39.37;103251.28;5135465;27;20497;-32
2022/01/12 03:46:50;;;;;;;0.20;0.20;;;;;;;18.73;39.48;103258.72;5155057;27;20074;-32
2022/01/12 03:49:16;;;;;;;0.20;0.20;;;;;;;18.75;39.32;103264.88;5123102;27;20053;-32
2022/01/12 03:51:43;;;;;;;0.30;0.30;;;;;;;18.73;39.55;103272.53;5152677;27;20481;-32
2022/01/12 03:54:09;;;;;;;0.20;0.20;;;;;;;18.75;39.43;103284.19;5132616;27;20116;-32
2022/01/12 03:56:35;;;;;;;0.20;0.20;;;;;;;18.72;39.28;103271.69;5133903;27;20050;-32
2022/01/12 03:59:02;;;;;;;0.20;0.20;;;;;;;18.74;39.25;103277.00;5157671;27;20497;-32
2022/01/12 04:01:28;;;;;;;0.20;0.20;;;;;;;18.72;39.28;103270.84;5155888;27;20043;-33
2022/01/12 04:04:04;;;;;;;0.20;0.20;;;;;;;18.71;39.32;103264.47;5155816;27;20057;-32
2022/01/12 04:09:36;;;;;;;0.20;0.20;;;;;;;18.72;39.47;103270.84;5129089;27;20473;-32
2022/01/12 04:12:02;;;;;;;0.20;0.20;;;;;;;18.73;39.42;103283.56;5155168;27;20103;-32
2022/01/12 04:14:27;;;;;;;0.20;0.20;;;;;;;18.72;39.30;103285.47;5152852;27;20061;-32
2022/01/12 04:16:53;;;;;;;0.20;0.20;;;;;;;18.72;39.40;103285.47;5156456;27;20568;-32
2022/01/12 04:19:19;;;;;;;0.20;0.20;;;;;;;18.71;39.47;103275.50;5143455;27;20104;-32
2022/01/12 04:21:48;;;;;;;0.20;0.20;;;;;;;18.71;39.24;103275.50;5140659;27;20058;-32
2022/01/12 04:24:14;;;;;;;0.30;0.30;;;;;;;18.72;39.38;103276.34;5138116;27;20106;-32
2022/01/12 04:26:39;;;;;;;0.20;0.20;;;;;;;18.72;39.48;103273.59;5141016;27;20218;-32
2022/01/12 04:29:07;;;;;;;0.30;0.30;;;;;;;18.72;39.41;103276.34;5123393;27;20152;-32
2022/01/12 04:31:34;;;;;;;0.20;0.20;;;;;;;18.71;39.29;103272.75;5122987;27;20400;-32
2022/01/12 04:34:00;;;;;;;0.20;0.20;;;;;;;18.71;39.41;103267.22;5106206;27;20496;-32
2022/01/12 04:36:26;;;;;;;0.20;0.20;;;;;;;18.71;39.34;103269.16;5139488;27;20051;-33
2022/01/12 04:38:52;;;;;;;0.20;0.20;;;;;;;18.70;39.38;103272.97;5124491;27;20469;-32
2022/01/12 04:41:17;;;;;;;0.20;0.20;;;;;;;18.70;39.33;103262.78;5123259;27;20055;-31
2022/01/12 04:43:43;;;;;;;0.20;0.20;;;;;;;18.70;39.42;103260.03;5141739;27;20053;-32
2022/01/12 04:49:24;;;;;;;0.22;0.22;;;;;;;18.71;39.46;103263.63;5160978;27;20206;-33
2022/01/12 04:51:38;;;;;;;0.28;0.28;;;;;;;18.69;39.28;103265.72;5104394;27;20500;-32
2022/01/12 04:54:04;;;;;;;0.20;0.20;;;;;;;18.70;39.38;103270.22;5143496;27;20035;-32
2022/01/12 04:56:30;;;;;;;0.20;0.20;;;;;;;18.70;39.34;103279.34;5149308;27;20047;-32
2022/01/12 04:58:56;;;;;;;0.30;0.30;;;;;;;18.70;39.38;103292.31;5130916;27;20077;-32
2022/01/12 05:01:24;;;;;;;0.20;0.20;;;;;;;18.70;39.29;103306.09;5144854;27;20035;-32
2022/01/12 05:06:46;;;;;;;0.20;0.20;;;;;;;18.70;39.31;103306.94;5115450;27;20045;-32
2022/01/12 05:10:00;;;;;;;0.20;0.20;;;;;;;18.72;39.37;103315.00;5145375;27;20444;-32
2022/01/12 05:14:52;;;;;;;0.20;0.20;;;;;;;18.69;39.24;103320.91;5131987;27;20043;-33
2022/01/12 05:17:18;;;;;;;0.20;0.20;;;;;;;18.70;39.47;103309.72;5145259;27;20059;-32
2022/01/12 05:19:44;;;;;;;0.22;0.22;;;;;;;18.69;39.32;103301.59;5144451;27;20058;-34
2022/01/12 05:22:10;;;;;;;0.20;0.20;;;;;;;18.68;39.28;103297.16;5142374;27;20443;-32
2022/01/12 05:24:36;;;;;;;0.20;0.20;;;;;;;18.69;39.41;103301.59;5143084;27;20047;-32
2022/01/12 05:27:21;;;;;;;0.20;0.20;;;;;;;18.69;39.42;103294.19;5127750;27;20380;-33
2022/01/12 05:29:47;;;;;;;0.20;0.20;;;;;;;18.68;39.40;103297.16;5144227;27;20302;-32
2022/01/12 05:32:13;;;;;;;0.20;0.20;;;;;;;18.67;39.33;103298.22;5144847;27;20051;-32
2022/01/12 05:34:39;;;;;;;0.30;0.30;;;;;;;18.67;39.28;103296.31;5150023;27;20046;-32
2022/01/12 05:37:05;;;;;;;0.20;0.20;;;;;;;18.68;39.62;103298.00;5144768;27;20345;-32
2022/01/12 05:39:31;;;;;;;0.20;0.20;;;;;;;18.68;39.28;103299.91;5128614;27;20480;-32
2022/01/12 05:42:17;;;;;;;0.20;0.20;;;;;;;18.69;39.16;103301.59;5133062;27;20050;-36
2022/01/12 05:44:43;;;;;;;0.20;0.20;;;;;;;18.69;39.34;103308.00;5141840;27;20424;-32
2022/01/12 05:47:18;;;;;;;0.20;0.20;;;;;;;18.68;39.32;103300.75;5143676;27;20126;-32
2022/01/12 05:49:45;;;;;;;0.20;0.20;;;;;;;18.67;39.45;103293.53;5140137;27;20043;-32
2022/01/12 05:52:11;;;;;;;0.20;0.20;;;;;;;18.68;39.46;103303.50;5141522;27;20045;-33
2022/01/12 05:54:38;;;;;;;0.20;0.20;;;;;;;18.68;39.42;103314.56;5138946;27;21450;-32
2022/01/12 05:57:04;;;;;;;0.20;0.20;;;;;;;18.68;39.35;103302.66;5125955;27;20050;-33
2022/01/12 05:59:29;;;;;;;0.20;0.20;;;;;;;18.67;39.41;103301.81;5123323;27;20039;-32
2022/01/12 06:01:55;;;;;;;0.20;0.20;;;;;;;18.67;39.25;103296.31;5112713;27;20043;-32
2022/01/12 06:04:21;;;;;;;0.20;0.20;;;;;;;18.66;39.40;103291.84;5129798;27;20074;-32
2022/01/12 06:06:46;;;;;;;0.20;0.20;;;;;;;18.67;39.27;103292.69;5130260;27;20116;-32
2022/01/12 06:09:12;;;;;;;0.20;0.20;;;;;;;18.66;39.50;103291.84;5130742;27;20465;-32
2022/01/12 06:11:38;;;;;;;0.20;0.20;;;;;;;18.67;39.28;103299.06;5112165;27;20051;-32
2022/01/12 06:14:04;;;;;;;0.20;0.20;;;;;;;18.66;39.49;103283.59;5128737;27;21572;-33
2022/01/12 06:16:29;;;;;;;0.20;0.20;;;;;;;18.67;39.31;103278.91;5129707;27;20042;-32
2022/01/12 06:18:56;;;;;;;0.20;0.20;;;;;;;18.65;39.28;103287.41;5123868;27;20135;-33
2022/01/12 06:21:23;;;;;;;0.20;0.20;;;;;;;18.67;39.31;103300.97;5108369;28;20474;-32
2022/01/12 06:23:50;;;;;;;0.20;0.20;;;;;;;18.67;39.41;103288.03;5090754;28;20122;-33
2022/01/12 06:26:15;;;;;;;0.20;0.20;;;;;;;18.66;39.37;103294.63;5091107;28;20052;-32
2022/01/12 06:28:53;;;;;;;0.20;0.20;;;;;;;18.66;39.47;103296.53;5109539;28;20054;-32
2022/01/12 06:31:23;;;;;;;0.20;0.20;;;;;;;18.64;38.59;103295.88;5111283;28;20108;-39
2022/01/12 06:33:49;;;;;;;0.20;0.20;;;;;;;18.60;37.63;103302.91;5087589;28;20070;-41
2022/01/12 06:36:17;;;;;;;0.20;0.20;;;;;;;18.61;37.98;103308.25;5101540;28;20047;-37
2022/01/12 06:38:45;;;;;;;0.20;0.20;;;;;;;18.63;38.20;103310.78;5096385;28;20048;-42
2022/01/12 06:41:13;;;;;;;0.20;0.20;;;;;;;18.61;37.02;103324.78;5094212;28;20067;-40
2022/01/12 06:43:39;;;;;;;0.20;0.20;;;;;;;18.56;36.87;103319.91;5101400;28;20043;-43
2022/01/12 06:46:04;;;;;;;0.20;0.20;;;;;;;18.55;36.85;103312.69;5100823;28;20276;-42
2022/01/12 06:48:31;;;;;;;0.20;0.20;;;;;;;18.53;37.61;103312.09;5074103;28;20044;-45
2022/01/12 06:50:57;;;;;;;0.20;0.20;;;;;;;18.53;37.46;103320.38;5095290;28;20120;-44
2022/01/12 06:53:22;;;;;;;0.20;0.20;;;;;;;18.52;36.47;103326.06;5099557;28;20036;-42
2022/01/12 06:55:48;;;;;;;0.20;0.20;;;;;;;18.53;36.97;103325.03;5099286;28;20094;-42
2022/01/12 06:58:14;;;;;;;0.20;0.20;;;;;;;18.55;37.36;103334.78;5099329;28;20478;-44
2022/01/12 07:00:40;;;;;;;0.20;0.20;;;;;;;18.58;36.42;103332.66;5100747;28;20593;-43
2022/01/12 07:03:05;;;;;;;0.20;0.20;;;;;;;18.46;35.95;103340.75;5086954;28;20458;-46
2022/01/12 07:05:31;;;;;;;0.20;0.20;;;;;;;18.50;36.42;103339.25;5100596;28;20471;-45
2022/01/12 07:07:57;;;;;;;0.30;0.30;;;;;;;18.42;35.21;103342.25;5104752;28;20135;-47
2022/01/12 07:10:24;;;;;;;0.20;0.20;;;;;;;18.47;35.25;103345.22;5101301;28;20035;-41
2022/01/12 07:12:49;;;;;;;0.22;0.22;;;;;;;18.41;35.45;103337.81;5103390;28;20468;-42
2022/01/12 07:15:15;;;;;;;0.30;0.30;;;;;;;18.47;36.30;103346.06;5108407;28;20047;-42
2022/01/12 07:17:41;;;;;;;0.30;0.30;;;;;;;18.50;36.12;103342.03;5098032;28;20051;-42
2022/01/12 07:20:07;;;;;;;0.30;0.30;;;;;;;18.52;36.17;103351.78;5077900;28;20036;-42
2022/01/12 07:22:32;;;;;;;0.20;0.20;;;;;;;18.55;36.39;103362.38;5091715;28;20405;-42
2022/01/12 07:24:58;;;;;;;0.30;0.30;;;;;;;18.56;35.99;103368.75;5096742;28;20043;-43
2022/01/12 07:27:24;;;;;;;0.20;0.20;;;;;;;18.58;36.16;103374.06;5097907;28;20703;-43
2022/01/12 07:29:49;;;;;;;0.20;0.20;;;;;;;18.62;35.99;103394.63;5089351;28;20478;-43
2022/01/12 07:32:15;;;;;;;0.20;0.20;;;;;;;18.59;36.06;103393.16;5088848;28;20051;-43
2022/01/12 07:34:41;;;;;;;0.20;0.20;;;;;;;18.52;36.09;103401.47;5097409;28;20540;-44
2022/01/12 07:37:07;;;;;;;0.20;0.20;;;;;;;18.46;35.69;103412.50;5094253;28;20047;-43
2022/01/12 07:39:32;;;;;;;0.20;0.20;;;;;;;18.51;35.79;103415.47;5094012;28;20051;-42
2022/01/12 07:41:58;;;;;;;0.30;0.30;;;;;;;18.57;36.17;103422.88;5093755;28;20044;-43
2022/01/12 07:44:24;;;;;;;0.20;0.20;;;;;;;18.60;35.88;103429.88;5096871;28;20044;-43
2022/01/12 07:46:49;;;;;;;0.20;0.20;;;;;;;18.60;36.16;103433.47;5098695;28;20090;-42
2022/01/12 07:49:15;;;;;;;0.20;0.20;;;;;;;18.54;35.76;103434.34;5089037;28;20297;-42
2022/01/12 07:51:41;;;;;;;0.20;0.20;;;;;;;18.53;35.47;103430.75;5076338;28;20082;-43
2022/01/12 07:54:06;;;;;;;0.20;0.20;;;;;;;18.65;36.11;103436.47;5069631;28;20414;-44
2022/01/12 07:56:32;;;;;;;0.20;0.20;;;;;;;18.78;36.15;103430.06;5089574;28;20101;-41
2022/01/12 07:58:58;;;;;;;0.20;0.20;;;;;;;18.90;36.05;103430.22;5072087;28;20040;-43
2022/01/12 08:01:24;;;;;;;0.20;0.20;;;;;;;18.98;36.26;103435.50;5066332;28;21457;-43
2022/01/12 08:03:50;;;;;;;0.25;0.25;;;;;;;19.00;36.12;103434.22;5063471;28;20073;-42
2022/01/12 08:06:16;;;;;;;0.20;0.20;;;;;;;19.02;36.33;103443.13;5089032;28;20390;-42
2022/01/12 08:08:42;;;;;;;0.20;0.20;;;;;;;19.03;36.53;103442.06;5060255;28;20088;-43
2022/01/12 08:11:07;;;;;;;0.20;0.20;;;;;;;19.07;36.56;103436.09;5072439;28;20036;-41
2022/01/12 08:13:33;;;;;;;0.20;0.20;;;;;;;19.05;36.78;103428.06;5085862;28;20051;-42
2022/01/12 08:15:59;;;;;;;0.20;0.20;;;;;;;19.07;36.43;103433.34;5068503;28;20159;-41
2022/01/12 08:18:25;;;;;;;0.20;0.20;;;;;;;19.06;36.52;103429.75;5092003;28;20749;-42
2022/01/12 08:20:51;;;;;;;0.20;0.20;;;;;;;19.02;35.66;103442.28;5091699;28;20544;-42
2022/01/12 08:23:16;;;;;;;0.20;0.20;;;;;;;19.13;36.74;103435.22;5070123;28;20666;-43
2022/01/12 08:25:42;;;;;;;0.20;0.20;;;;;;;19.16;36.87;103440.31;5092990;28;20425;-39
2022/01/12 08:28:08;;;;;;;0.20;0.20;;;;;;;19.13;36.43;103444.38;5093949;28;20055;-43
2022/01/12 08:30:35;;;;;;;0.22;0.22;;;;;;;19.19;36.31;103456.44;5092223;28;20479;-42
2022/01/12 08:33:01;;;;;;;0.20;0.20;;;;;;;19.21;36.62;103452.41;5088239;27;20327;-41
2022/01/12 08:35:27;;;;;;;0.20;0.20;;;;;;;19.20;36.52;103461.75;5069209;28;20062;-40
2022/01/12 08:37:53;;;;;;;0.20;0.20;;;;;;;19.20;36.80;103458.97;5089252;28;20079;-41
2022/01/12 08:40:19;;;;;;;0.20;0.20;;;;;;;19.22;36.92;103462.38;5076048;28;20082;-42
2022/01/12 08:42:45;;;;;;;0.20;0.20;;;;;;;19.22;36.89;103465.16;5093042;28;20058;-42
2022/01/12 08:45:12;;;;;;;0.20;0.20;;;;;;;19.25;36.68;103472.13;5091630;28;20079;-40
2022/01/12 08:47:38;;;;;;;0.20;0.20;;;;;;;19.25;36.91;103475.75;5073932;28;20082;-42
2022/01/12 08:50:05;;;;;;;0.20;0.20;;;;;;;19.26;36.59;103473.84;5087459;28;20056;-42
2022/01/12 08:52:30;;;;;;;0.20;0.20;;;;;;;19.26;36.99;103477.47;5059138;28;20086;-41
2022/01/12 08:54:57;;;;;;;0.20;0.20;;;;;;;19.27;36.94;103468.09;5086301;28;20301;-40
2022/01/12 08:57:23;;;;;;;0.20;0.20;;;;;;;19.27;36.79;103470.03;5078883;28;20084;-41
2022/01/12 08:59:48;;;;;;;0.28;0.28;;;;;;;19.29;36.73;103473.41;5079285;28;20052;-42
2022/01/12 09:02:15;;;;;;;0.20;0.20;;;;;;;19.29;36.45;103485.28;5066658;28;20480;-41
2022/01/12 09:04:42;;;;;;;0.20;0.20;;;;;;;19.34;36.70;103492.91;5072039;28;20047;-40
2022/01/12 09:07:08;;;;;;;0.20;0.20;;;;;;;19.35;36.39;103505.69;5073648;28;20491;-45
2022/01/12 09:09:35;;;;;;;0.20;0.20;;;;;;;19.35;36.51;103502.94;5090527;28;20051;-42
2022/01/12 09:12:03;;;;;;;0.20;0.20;;;;;;;19.35;36.63;103513.97;5072977;28;20035;-39
2022/01/12 09:14:29;;;;;;;0.20;0.20;;;;;;;19.37;36.86;103516.50;5086707;28;20048;-41
2022/01/12 09:16:56;;;;;;;0.30;0.30;;;;;;;19.37;36.88;103519.28;5080831;28;20054;-41
2022/01/12 09:19:26;;;;;;;0.20;0.20;;;;;;;19.37;35.08;103516.50;5059926;28;20051;-46
2022/01/12 09:21:52;;;;;;;0.20;0.20;;;;;;;19.37;36.07;103522.88;5069209;28;20511;-32
2022/01/12 09:24:18;;;;;;;0.22;0.22;;;;;;;19.54;36.16;103521.31;5069609;28;20055;-34
2022/01/12 09:26:44;;;;;;;0.20;0.20;;;;;;;19.61;36.40;103526.00;5099441;28;20109;-34
2022/01/12 09:29:10;;;;;;;0.30;0.30;;;;;;;19.59;36.28;103520.66;5080305;28;20044;-34
2022/01/12 09:31:36;;;;;;;0.20;0.20;;;;;;;19.59;36.40;103520.66;5087183;28;20116;-34
2022/01/12 09:34:03;;;;;;;0.20;0.20;;;;;;;19.60;36.51;103524.25;5090795;28;20438;-33
2022/01/12 09:36:29;;;;;;;0.20;0.20;;;;;;;19.60;36.28;103518.72;5094122;28;20120;-33
2022/01/12 09:38:55;;;;;;;0.20;0.20;;;;;;;19.59;36.27;103517.03;5077691;28;20062;-33
2022/01/12 09:41:22;;;;;;;0.20;0.20;;;;;;;19.45;35.21;103519.03;5094701;28;20495;-33
2022/01/12 09:43:49;;;;;;;0.20;0.20;;;;;;;19.55;36.00;103517.47;5084678;28;20405;-34
2022/01/12 09:46:15;;;;;;;0.20;0.20;;;;;;;19.60;36.17;103515.97;5087957;28;20147;-34
2022/01/12 09:48:41;;;;;;;0.20;0.20;;;;;;;19.60;36.11;103516.81;5099742;28;20047;-34
2022/01/12 09:51:07;;;;;;;0.20;0.20;;;;;;;19.60;36.04;103519.56;5088922;28;20130;-33
2022/01/12 09:53:35;;;;;;;0.20;0.20;;;;;;;19.61;36.27;103526.00;5091997;28;20079;-33
2022/01/12 09:56:03;;;;;;;0.30;0.30;;;;;;;19.62;36.36;103522.16;5062611;28;20338;-34
2022/01/12 09:58:33;;;;;;;0.20;0.20;;;;;;;19.61;36.11;103524.09;5082790;28;20055;-33
2022/01/12 10:01:00;;;;;;;0.20;0.20;;;;;;;19.61;36.15;103526.84;5079746;28;20058;-33
2022/01/12 10:03:31;;;;;;;0.20;0.20;;;;;;;19.62;36.09;103523.00;5062610;28;20052;-33
2022/01/12 10:05:56;;;;;;;0.20;0.20;;;;;;;19.62;36.29;103517.47;5100107;28;20481;-33
2022/01/12 10:08:22;;;;;;;0.20;0.20;;;;;;;19.63;36.59;103519.16;5096608;28;20040;-33
2022/01/12 10:11:08;;;;;;;0.20;0.20;;;;;;;19.63;36.50;103521.94;5095705;28;20063;-34
2022/01/12 10:13:36;;;;;;;0.20;0.20;;;;;;;19.63;36.33;103524.69;5077292;28;20040;-33
2022/01/12 10:16:13;;;;;;;0.20;0.20;;;;;;;19.64;36.46;103531.06;5101314;28;20043;-34
2022/01/12 10:19:00;;;;;;;0.20;0.20;;;;;;;19.65;36.38;103518.97;5100699;28;20516;-34
2022/01/12 10:21:35;;;;;;;0.20;0.20;;;;;;;19.64;36.53;103528.31;5075443;28;20052;-33
2022/01/12 10:24:04;;;;;;;0.20;0.20;;;;;;;19.65;36.32;103524.50;5073545;28;20055;-33
2022/01/12 10:26:36;;;;;;;0.20;0.20;;;;;;;19.60;35.61;103527.03;5080747;28;20667;-33
2022/01/12 10:29:05;;;;;;;0.20;0.20;;;;;;;19.68;35.98;103524.03;5071710;28;20054;-33
2022/01/12 10:32:02;;;;;;;0.20;0.20;;;;;;;19.69;35.97;103529.34;5057184;28;20048;-33
2022/01/12 10:34:36;;;;;;;0.20;0.20;;;;;;;19.67;36.09;103534.25;5072878;28;20074;-36
2022/01/12 10:37:06;;;;;;;0.20;0.20;;;;;;;19.69;36.30;103542.31;5053694;28;20071;-34
2022/01/12 10:39:32;;;;;;;0.20;0.20;;;;;;;19.68;36.46;103532.31;5065760;28;20044;-34
2022/01/12 10:42:02;;;;;;;0.20;0.20;;;;;;;19.69;36.42;103531.25;5097701;28;20055;-34
2022/01/12 10:44:31;;;;;;;0.20;0.20;;;;;;;19.69;36.30;103534.00;5093661;28;20046;-34
2022/01/12 10:47:06;;;;;;;0.20;0.20;;;;;;;19.67;35.88;103525.09;5077929;28;20051;-37
2022/01/12 10:49:37;;;;;;;;;;;;;;;19.76;36.05;103541.22;5096179;28;20272;-45
2022/01/12 10:52:07;;;;;;;0.20;0.20;;;;;;;19.77;36.22;103542.06;5094800;28;19920;-39
2022/01/12 10:54:53;;;;;;;0.20;0.20;;;;;;;19.75;36.30;103547.81;5074533;28;20070;-35
2022/01/12 10:57:22;;;;;;;0.20;0.20;;;;;;;19.75;36.36;103544.19;5080408;28;20103;-35
2022/01/12 11:00:18;;;;;;;0.20;0.20;;;;;;;19.75;36.22;103545.03;5074746;28;20055;-36
2022/01/12 11:02:47;;;;;;;0.20;0.20;;;;;;;19.75;36.31;103547.81;5077744;28;20637;-36
2022/01/12 11:05:14;;;;;;;0.20;0.20;;;;;;;19.76;36.31;103543.13;5070562;28;20069;-37
2022/01/12 11:07:40;;;;;;;0.20;0.20;;;;;;;19.75;36.63;103539.53;5075522;28;20243;-35
2022/01/12 11:10:08;;;;;;;0.20;0.20;;;;;;;19.76;36.17;103549.50;5089407;28;20574;-35
2022/01/12 11:12:35;;;;;;;0.20;0.20;;;;;;;19.76;36.16;103535.69;5069416;28;20071;-39
2022/01/12 11:15:05;;;;;;;0.20;0.20;;;;;;;19.75;36.44;103542.28;5081964;28;20055;-36
2022/01/12 11:17:30;;;;;;;0.20;0.20;;;;;;;19.75;36.38;103535.91;5056456;28;20047;-42
2022/01/12 11:23:05;;;;;;;0.20;0.20;;;;;;;19.76;36.67;103543.97;5147556;27;20289;-32
2022/01/12 11:25:34;;;;;;;0.20;0.20;;;;;;;19.77;36.58;103544.81;5130922;27;20071;-37
2022/01/12 11:28:19;;;;;;;0.20;0.20;;;;;;;19.77;36.42;103537.41;5100634;27;20043;-37
2022/01/12 11:30:59;;;;;;;0.20;0.20;;;;;;;19.77;36.46;103539.28;5106373;27;20043;-34
2022/01/12 11:36:24;;;;;;;0.20;0.20;;;;;;;19.77;36.45;103545.69;5146749;27;20537;-41
2022/01/12 11:39:00;;;;;;;0.20;0.20;;;;;;;19.77;36.30;103553.09;5131454;27;20047;-35
2022/01/12 11:41:29;;;;;;;0.20;0.20;;;;;;;19.78;36.54;103561.22;5115644;27;20061;-36
2022/01/12 11:44:06;;;;;;;0.20;0.20;;;;;;;19.78;36.57;103568.66;5109059;27;20050;-36
2022/01/12 11:46:53;;;;;;;0.20;0.20;;;;;;;19.77;36.39;103566.94;5125759;27;20053;-38
2022/01/12 11:49:42;;;;;;;0.20;0.20;;;;;;;19.78;36.65;103566.75;5109255;27;20057;-38
2022/01/12 11:52:26;;;;;;;0.20;0.20;;;;;;;19.78;36.52;103557.59;5107038;27;20071;-37
2022/01/12 11:55:07;;;;;;;0.20;0.20;;;;;;;19.77;36.65;103551.22;5112669;27;20552;-40
2022/01/12 11:57:34;;;;;;;0.20;0.20;;;;;;;19.76;36.45;103546.75;5096989;27;20058;-38
2022/01/12 12:00:11;;;;;;;0.20;0.20;;;;;;;19.77;36.54;103554.00;5134890;27;20050;-36
2022/01/12 12:02:39;;;;;;;0.20;0.20;;;;;;;19.76;36.45;103552.28;5124578;27;20149;-37
2022/01/12 12:05:13;;;;;;;0.20;0.20;;;;;;;19.75;36.71;103547.81;5123699;27;20047;-41
2022/01/12 12:07:46;;;;;;;0.20;0.20;;;;;;;19.75;36.44;103538.69;5115475;27;20068;-38
2022/01/12 12:10:17;;;;;;;0.20;0.20;;;;;;;19.74;36.82;103542.50;5115696;27;20058;-36
2022/01/12 12:12:42;;;;;;;0.20;0.20;;;;;;;19.72;36.70;103545.47;5122526;27;20042;-41
2022/01/12 12:15:09;;;;;;;0.20;0.20;;;;;;;19.72;36.70;103541.88;5115976;27;20074;-36
2022/01/12 12:17:37;;;;;;;0.20;0.20;;;;;;;19.71;36.66;103540.19;5118848;27;20043;-39
2022/01/12 12:20:05;;;;;;;0.10;0.10;;;;;;;19.70;36.72;103535.72;5091286;27;20371;-41
2022/01/12 12:22:33;;;;;;;0.20;0.20;;;;;;;19.70;36.53;103530.19;5116417;27;20053;-41
2022/01/12 12:25:08;;;;;;;0.20;0.20;;;;;;;19.69;36.66;103522.97;5081825;27;20474;-35
2022/01/12 12:27:35;;;;;;;0.20;0.20;;;;;;;19.68;36.66;103526.78;5097950;27;20085;-38
2022/01/12 12:30:06;;;;;;;0.20;0.20;;;;;;;19.66;36.70;103521.50;5100432;27;20044;-35
2022/01/12 12:32:35;;;;;;;0.20;0.20;;;;;;;19.67;36.65;103531.47;5115884;27;20051;-35
2022/01/12 12:35:05;;;;;;;0.20;0.20;;;;;;;19.65;37.01;103532.78;5097122;27;20047;-34
2022/01/12 12:37:36;;;;;;;0.20;0.20;;;;;;;19.22;34.50;103527.84;5114766;27;20136;-42
2022/01/12 12:40:22;;;;;;;0.20;0.20;;;;;;;19.36;35.68;103536.94;5096280;27;20043;-45
2022/01/12 12:42:59;;;;;;;0.20;0.20;;;;;;;19.52;36.10;103548.34;5111345;27;20487;-47